Yancopin, Arkansas
Current Conditions -  °F | °C
As of 5:35 AM on Thursday 18 Dec 2014 (Local Time) from KRNV Reporting Station
Drizzle Drizzle  
Wind Chill: 37°   Ceiling: 4400
Heat Index: 41°   Visibility: 10mi
Dew Point: 40°   Wind: 6mph
Humidity: 98%   Direction: 70°ENE
Pressure: 30.2"   Gusts: NA
Location:  33.8911°N, 91.2569°W
Report Text: KRNV 181135Z AUTO 07005KT 10SM -DZ OVC044 05/05 A3020 RMK AO2 T00480045
Loading
Personal Weather Stations






























Interactive Weather Map New forecast layout! Learn more

10-Day Weather Forecast

Advertisements
Track Severe Weather on mobile